sensor_id;sensor_type;location;lat;lon;timestamp;P1;durP1;ratioP1;P2;durP2;ratioP2
18138;SDS011;9195;53.176;9.486;2022-07-23T00:00:35;12.07;;;11.57;;
18138;SDS011;9195;53.176;9.486;2022-07-23T00:03:01;11.77;;;11.27;;
18138;SDS011;9195;53.176;9.486;2022-07-23T00:05:26;12.27;;;11.77;;
18138;SDS011;9195;53.176;9.486;2022-07-23T00:07:52;12.00;;;11.50;;
18138;SDS011;9195;53.176;9.486;2022-07-23T00:10:18;12.37;;;11.87;;
18138;SDS011;9195;53.176;9.486;2022-07-23T00:12:43;12.17;;;11.67;;
18138;SDS011;9195;53.176;9.486;2022-07-23T00:15:09;11.77;;;11.27;;
18138;SDS011;9195;53.176;9.486;2022-07-23T00:17:35;11.57;;;11.07;;
18138;SDS011;9195;53.176;9.486;2022-07-23T00:20:00;11.60;;;11.10;;
18138;SDS011;9195;53.176;9.486;2022-07-23T00:22:26;11.90;;;11.40;;
18138;SDS011;9195;53.176;9.486;2022-07-23T00:24:54;11.63;;;11.13;;
18138;SDS011;9195;53.176;9.486;2022-07-23T00:27:20;11.73;;;11.23;;
18138;SDS011;9195;53.176;9.486;2022-07-23T00:29:45;12.13;;;11.63;;
18138;SDS011;9195;53.176;9.486;2022-07-23T00:32:11;11.77;;;11.27;;
18138;SDS011;9195;53.176;9.486;2022-07-23T00:34:36;11.90;;;11.40;;
18138;SDS011;9195;53.176;9.486;2022-07-23T00:37:02;11.90;;;11.40;;
18138;SDS011;9195;53.176;9.486;2022-07-23T00:39:28;12.10;;;11.60;;
18138;SDS011;9195;53.176;9.486;2022-07-23T00:41:53;11.80;;;11.30;;
18138;SDS011;9195;53.176;9.486;2022-07-23T00:44:23;11.60;;;11.10;;
18138;SDS011;9195;53.176;9.486;2022-07-23T00:46:50;11.70;;;11.20;;
18138;SDS011;9195;53.176;9.486;2022-07-23T00:49:26;12.17;;;11.67;;
18138;SDS011;9195;53.176;9.486;2022-07-23T00:51:54;11.77;;;11.27;;
18138;SDS011;9195;53.176;9.486;2022-07-23T00:54:21;11.80;;;11.30;;
18138;SDS011;9195;53.176;9.486;2022-07-23T00:56:51;11.40;;;10.90;;
18138;SDS011;9195;53.176;9.486;2022-07-23T00:59:16;11.70;;;11.20;;
18138;SDS011;9195;53.176;9.486;2022-07-23T01:01:42;11.77;;;11.27;;
18138;SDS011;9195;53.176;9.486;2022-07-23T01:04:09;11.77;;;11.27;;
18138;SDS011;9195;53.176;9.486;2022-07-23T01:06:36;12.00;;;11.50;;
18138;SDS011;9195;53.176;9.486;2022-07-23T01:09:03;11.37;;;10.87;;
18138;SDS011;9195;53.176;9.486;2022-07-23T01:11:29;11.57;;;11.07;;
18138;SDS011;9195;53.176;9.486;2022-07-23T01:13:56;11.57;;;11.07;;
18138;SDS011;9195;53.176;9.486;2022-07-23T01:16:22;12.20;;;11.70;;
18138;SDS011;9195;53.176;9.486;2022-07-23T01:18:48;11.60;;;11.10;;
18138;SDS011;9195;53.176;9.486;2022-07-23T01:21:13;11.80;;;11.30;;
18138;SDS011;9195;53.176;9.486;2022-07-23T01:23:42;11.53;;;11.03;;
18138;SDS011;9195;53.176;9.486;2022-07-23T01:26:08;11.53;;;11.03;;
18138;SDS011;9195;53.176;9.486;2022-07-23T01:28:33;11.70;;;11.20;;
18138;SDS011;9195;53.176;9.486;2022-07-23T01:30:59;11.50;;;11.00;;
18138;SDS011;9195;53.176;9.486;2022-07-23T01:33:24;11.53;;;11.03;;
18138;SDS011;9195;53.176;9.486;2022-07-23T01:35:50;11.80;;;11.30;;
18138;SDS011;9195;53.176;9.486;2022-07-23T01:38:15;11.80;;;11.30;;
18138;SDS011;9195;53.176;9.486;2022-07-23T01:40:41;12.10;;;11.60;;
18138;SDS011;9195;53.176;9.486;2022-07-23T01:43:07;11.57;;;11.07;;
18138;SDS011;9195;53.176;9.486;2022-07-23T01:45:32;11.50;;;11.00;;
18138;SDS011;9195;53.176;9.486;2022-07-23T01:47:58;11.37;;;10.87;;
18138;SDS011;9195;53.176;9.486;2022-07-23T01:50:23;10.70;;;10.30;;
18138;SDS011;9195;53.176;9.486;2022-07-23T01:52:49;10.73;;;10.33;;
18138;SDS011;9195;53.176;9.486;2022-07-23T01:55:14;11.00;;;10.50;;
18138;SDS011;9195;53.176;9.486;2022-07-23T01:57:40;11.13;;;10.63;;
18138;SDS011;9195;53.176;9.486;2022-07-23T02:00:06;11.37;;;10.87;;
18138;SDS011;9195;53.176;9.486;2022-07-23T02:02:32;11.20;;;10.70;;
18138;SDS011;9195;53.176;9.486;2022-07-23T02:04:57;11.57;;;11.07;;
18138;SDS011;9195;53.176;9.486;2022-07-23T02:07:23;11.17;;;10.67;;
18138;SDS011;9195;53.176;9.486;2022-07-23T02:09:48;11.47;;;10.97;;
18138;SDS011;9195;53.176;9.486;2022-07-23T02:12:14;11.13;;;10.63;;
18138;SDS011;9195;53.176;9.486;2022-07-23T02:14:40;11.17;;;10.67;;
18138;SDS011;9195;53.176;9.486;2022-07-23T02:17:05;11.40;;;10.90;;
18138;SDS011;9195;53.176;9.486;2022-07-23T02:19:31;11.10;;;10.60;;
18138;SDS011;9195;53.176;9.486;2022-07-23T02:21:56;11.03;;;10.53;;
18138;SDS011;9195;53.176;9.486;2022-07-23T02:24:22;11.40;;;10.90;;
18138;SDS011;9195;53.176;9.486;2022-07-23T02:26:47;11.60;;;11.10;;
18138;SDS011;9195;53.176;9.486;2022-07-23T02:29:13;11.43;;;10.93;;
18138;SDS011;9195;53.176;9.486;2022-07-23T02:31:39;11.07;;;10.57;;
18138;SDS011;9195;53.176;9.486;2022-07-23T02:34:04;11.03;;;10.53;;
18138;SDS011;9195;53.176;9.486;2022-07-23T02:36:30;11.40;;;10.90;;
18138;SDS011;9195;53.176;9.486;2022-07-23T02:38:56;11.03;;;10.53;;
18138;SDS011;9195;53.176;9.486;2022-07-23T02:41:22;11.10;;;10.60;;
18138;SDS011;9195;53.176;9.486;2022-07-23T02:43:48;10.67;;;10.27;;
18138;SDS011;9195;53.176;9.486;2022-07-23T02:46:14;10.40;;;10.00;;
18138;SDS011;9195;53.176;9.486;2022-07-23T02:48:39;11.00;;;10.50;;
18138;SDS011;9195;53.176;9.486;2022-07-23T02:51:05;10.33;;;9.93;;
18138;SDS011;9195;53.176;9.486;2022-07-23T02:53:30;10.73;;;10.33;;
18138;SDS011;9195;53.176;9.486;2022-07-23T02:55:56;10.53;;;10.13;;
18138;SDS011;9195;53.176;9.486;2022-07-23T02:58:22;10.93;;;10.43;;
18138;SDS011;9195;53.176;9.486;2022-07-23T03:00:47;11.03;;;10.53;;
18138;SDS011;9195;53.176;9.486;2022-07-23T03:03:13;10.90;;;10.40;;
18138;SDS011;9195;53.176;9.486;2022-07-23T03:05:38;10.87;;;10.40;;
18138;SDS011;9195;53.176;9.486;2022-07-23T03:08:04;10.50;;;10.10;;
18138;SDS011;9195;53.176;9.486;2022-07-23T03:10:29;10.67;;;10.27;;
18138;SDS011;9195;53.176;9.486;2022-07-23T03:12:55;10.57;;;10.17;;
18138;SDS011;9195;53.176;9.486;2022-07-23T03:15:21;10.80;;;10.40;;
18138;SDS011;9195;53.176;9.486;2022-07-23T03:17:46;10.23;;;9.83;;
18138;SDS011;9195;53.176;9.486;2022-07-23T03:20:12;10.40;;;10.00;;
18138;SDS011;9195;53.176;9.486;2022-07-23T03:22:37;10.20;;;9.80;;
18138;SDS011;9195;53.176;9.486;2022-07-23T03:25:03;10.40;;;10.00;;
18138;SDS011;9195;53.176;9.486;2022-07-23T03:27:29;10.67;;;10.27;;
18138;SDS011;9195;53.176;9.486;2022-07-23T03:29:56;11.23;;;10.73;;
18138;SDS011;9195;53.176;9.486;2022-07-23T03:32:24;11.63;;;11.13;;
18138;SDS011;9195;53.176;9.486;2022-07-23T03:34:50;11.03;;;10.53;;
18138;SDS011;9195;53.176;9.486;2022-07-23T03:37:16;11.03;;;10.53;;
18138;SDS011;9195;53.176;9.486;2022-07-23T03:39:42;11.10;;;10.60;;
18138;SDS011;9195;53.176;9.486;2022-07-23T03:42:08;10.97;;;10.47;;
18138;SDS011;9195;53.176;9.486;2022-07-23T03:44:34;11.10;;;10.60;;
18138;SDS011;9195;53.176;9.486;2022-07-23T03:47:01;11.13;;;10.63;;
18138;SDS011;9195;53.176;9.486;2022-07-23T03:49:28;11.27;;;10.77;;
18138;SDS011;9195;53.176;9.486;2022-07-23T03:51:53;11.07;;;10.57;;
18138;SDS011;9195;53.176;9.486;2022-07-23T03:54:19;11.40;;;10.90;;
18138;SDS011;9195;53.176;9.486;2022-07-23T03:56:44;11.30;;;10.80;;
18138;SDS011;9195;53.176;9.486;2022-07-23T03:59:10;11.20;;;10.70;;
18138;SDS011;9195;53.176;9.486;2022-07-23T04:01:36;11.70;;;11.20;;
18138;SDS011;9195;53.176;9.486;2022-07-23T04:04:02;10.90;;;10.40;;
18138;SDS011;9195;53.176;9.486;2022-07-23T04:06:28;11.20;;;10.70;;
18138;SDS011;9195;53.176;9.486;2022-07-23T04:08:54;11.13;;;10.63;;
18138;SDS011;9195;53.176;9.486;2022-07-23T04:11:19;11.17;;;10.67;;
18138;SDS011;9195;53.176;9.486;2022-07-23T04:13:45;10.63;;;10.23;;
18138;SDS011;9195;53.176;9.486;2022-07-23T04:16:11;11.23;;;10.73;;
18138;SDS011;9195;53.176;9.486;2022-07-23T04:18:37;11.00;;;10.50;;
18138;SDS011;9195;53.176;9.486;2022-07-23T04:21:03;11.03;;;10.53;;
18138;SDS011;9195;53.176;9.486;2022-07-23T04:23:28;10.60;;;10.20;;
18138;SDS011;9195;53.176;9.486;2022-07-23T04:25:54;10.77;;;10.33;;
18138;SDS011;9195;53.176;9.486;2022-07-23T04:28:19;11.00;;;10.50;;
18138;SDS011;9195;53.176;9.486;2022-07-23T04:30:45;10.77;;;10.33;;
18138;SDS011;9195;53.176;9.486;2022-07-23T04:33:11;10.50;;;10.10;;
18138;SDS011;9195;53.176;9.486;2022-07-23T04:35:36;10.60;;;10.20;;
18138;SDS011;9195;53.176;9.486;2022-07-23T04:38:02;10.70;;;10.30;;
18138;SDS011;9195;53.176;9.486;2022-07-23T04:40:28;10.93;;;10.43;;
18138;SDS011;9195;53.176;9.486;2022-07-23T04:42:54;10.90;;;10.40;;
18138;SDS011;9195;53.176;9.486;2022-07-23T04:45:20;10.73;;;10.33;;
18138;SDS011;9195;53.176;9.486;2022-07-23T04:47:45;10.63;;;10.23;;
18138;SDS011;9195;53.176;9.486;2022-07-23T04:50:11;10.87;;;10.40;;
18138;SDS011;9195;53.176;9.486;2022-07-23T04:52:37;10.60;;;10.20;;
18138;SDS011;9195;53.176;9.486;2022-07-23T04:55:02;11.23;;;10.73;;
18138;SDS011;9195;53.176;9.486;2022-07-23T04:57:29;11.10;;;10.60;;
18138;SDS011;9195;53.176;9.486;2022-07-23T04:59:54;11.10;;;10.60;;
18138;SDS011;9195;53.176;9.486;2022-07-23T05:02:20;10.90;;;10.40;;
18138;SDS011;9195;53.176;9.486;2022-07-23T05:04:45;11.23;;;10.73;;
18138;SDS011;9195;53.176;9.486;2022-07-23T05:07:11;11.07;;;10.57;;
18138;SDS011;9195;53.176;9.486;2022-07-23T05:09:37;10.73;;;10.33;;
18138;SDS011;9195;53.176;9.486;2022-07-23T05:12:02;10.83;;;10.40;;
18138;SDS011;9195;53.176;9.486;2022-07-23T05:14:28;10.87;;;10.40;;
18138;SDS011;9195;53.176;9.486;2022-07-23T05:16:54;10.50;;;10.10;;
18138;SDS011;9195;53.176;9.486;2022-07-23T05:19:19;11.20;;;10.70;;
18138;SDS011;9195;53.176;9.486;2022-07-23T05:21:45;10.30;;;9.90;;
18138;SDS011;9195;53.176;9.486;2022-07-23T05:24:11;11.27;;;10.77;;
18138;SDS011;9195;53.176;9.486;2022-07-23T05:26:36;10.40;;;10.00;;
18138;SDS011;9195;53.176;9.486;2022-07-23T05:29:02;11.33;;;10.83;;
18138;SDS011;9195;53.176;9.486;2022-07-23T05:31:27;11.20;;;10.70;;
18138;SDS011;9195;53.176;9.486;2022-07-23T05:33:53;11.20;;;10.70;;
18138;SDS011;9195;53.176;9.486;2022-07-23T05:36:19;12.03;;;11.53;;
18138;SDS011;9195;53.176;9.486;2022-07-23T05:38:44;11.60;;;11.10;;
18138;SDS011;9195;53.176;9.486;2022-07-23T05:41:10;11.80;;;11.30;;
18138;SDS011;9195;53.176;9.486;2022-07-23T05:43:35;11.33;;;10.83;;
18138;SDS011;9195;53.176;9.486;2022-07-23T05:46:01;11.77;;;11.27;;
18138;SDS011;9195;53.176;9.486;2022-07-23T05:48:27;11.60;;;11.10;;
18138;SDS011;9195;53.176;9.486;2022-07-23T05:50:52;11.33;;;10.83;;
18138;SDS011;9195;53.176;9.486;2022-07-23T05:53:18;11.60;;;11.10;;
18138;SDS011;9195;53.176;9.486;2022-07-23T05:55:43;11.53;;;11.03;;
18138;SDS011;9195;53.176;9.486;2022-07-23T05:58:09;11.60;;;11.10;;
18138;SDS011;9195;53.176;9.486;2022-07-23T06:00:35;11.70;;;11.20;;
18138;SDS011;9195;53.176;9.486;2022-07-23T06:03:00;11.97;;;11.47;;
18138;SDS011;9195;53.176;9.486;2022-07-23T06:05:26;11.93;;;11.43;;
18138;SDS011;9195;53.176;9.486;2022-07-23T06:07:52;11.70;;;11.20;;
18138;SDS011;9195;53.176;9.486;2022-07-23T06:10:18;11.70;;;11.20;;
18138;SDS011;9195;53.176;9.486;2022-07-23T06:12:43;12.00;;;11.50;;
18138;SDS011;9195;53.176;9.486;2022-07-23T06:15:09;12.20;;;11.70;;
18138;SDS011;9195;53.176;9.486;2022-07-23T06:17:36;12.13;;;11.63;;
18138;SDS011;9195;53.176;9.486;2022-07-23T06:20:04;12.00;;;11.50;;
18138;SDS011;9195;53.176;9.486;2022-07-23T06:22:34;12.10;;;11.60;;
18138;SDS011;9195;53.176;9.486;2022-07-23T06:25:00;11.90;;;11.40;;
18138;SDS011;9195;53.176;9.486;2022-07-23T06:27:26;12.03;;;11.53;;
18138;SDS011;9195;53.176;9.486;2022-07-23T06:29:51;12.50;;;12.00;;
18138;SDS011;9195;53.176;9.486;2022-07-23T06:32:17;12.00;;;11.50;;
18138;SDS011;9195;53.176;9.486;2022-07-23T06:34:43;12.03;;;11.53;;
18138;SDS011;9195;53.176;9.486;2022-07-23T06:37:08;12.60;;;12.10;;
18138;SDS011;9195;53.176;9.486;2022-07-23T06:39:34;12.27;;;11.77;;
18138;SDS011;9195;53.176;9.486;2022-07-23T06:41:59;12.40;;;11.90;;
18138;SDS011;9195;53.176;9.486;2022-07-23T06:44:26;12.93;;;12.33;;
18138;SDS011;9195;53.176;9.486;2022-07-23T06:46:51;12.33;;;11.83;;
18138;SDS011;9195;53.176;9.486;2022-07-23T06:49:17;12.87;;;12.27;;
18138;SDS011;9195;53.176;9.486;2022-07-23T06:51:44;12.20;;;11.70;;
18138;SDS011;9195;53.176;9.486;2022-07-23T06:54:09;13.07;;;12.47;;
18138;SDS011;9195;53.176;9.486;2022-07-23T06:56:35;11.87;;;11.37;;
18138;SDS011;9195;53.176;9.486;2022-07-23T06:59:00;12.30;;;11.80;;
18138;SDS011;9195;53.176;9.486;2022-07-23T07:01:26;13.50;;;12.90;;
18138;SDS011;9195;53.176;9.486;2022-07-23T07:03:52;13.70;;;13.10;;
18138;SDS011;9195;53.176;9.486;2022-07-23T07:06:17;13.70;;;13.10;;
18138;SDS011;9195;53.176;9.486;2022-07-23T07:08:43;13.67;;;13.07;;
18138;SDS011;9195;53.176;9.486;2022-07-23T07:11:09;13.33;;;12.73;;
18138;SDS011;9195;53.176;9.486;2022-07-23T07:13:35;13.60;;;13.00;;
18138;SDS011;9195;53.176;9.486;2022-07-23T07:16:01;13.53;;;12.93;;
18138;SDS011;9195;53.176;9.486;2022-07-23T07:18:27;13.50;;;12.90;;
18138;SDS011;9195;53.176;9.486;2022-07-23T07:20:53;13.33;;;12.73;;
18138;SDS011;9195;53.176;9.486;2022-07-23T07:23:18;13.80;;;13.20;;
18138;SDS011;9195;53.176;9.486;2022-07-23T07:25:45;13.50;;;12.90;;
18138;SDS011;9195;53.176;9.486;2022-07-23T07:28:11;13.80;;;13.20;;
18138;SDS011;9195;53.176;9.486;2022-07-23T07:30:37;14.00;;;13.40;;
18138;SDS011;9195;53.176;9.486;2022-07-23T07:33:02;14.07;;;13.47;;
18138;SDS011;9195;53.176;9.486;2022-07-23T07:35:28;13.87;;;13.27;;
18138;SDS011;9195;53.176;9.486;2022-07-23T07:37:54;13.90;;;13.30;;
18138;SDS011;9195;53.176;9.486;2022-07-23T07:40:19;13.90;;;13.30;;
18138;SDS011;9195;53.176;9.486;2022-07-23T07:42:49;13.80;;;13.20;;
18138;SDS011;9195;53.176;9.486;2022-07-23T07:45:16;13.30;;;12.70;;
18138;SDS011;9195;53.176;9.486;2022-07-23T07:47:44;13.60;;;13.00;;
18138;SDS011;9195;53.176;9.486;2022-07-23T07:50:10;13.50;;;12.90;;
18138;SDS011;9195;53.176;9.486;2022-07-23T07:52:35;13.90;;;13.30;;
18138;SDS011;9195;53.176;9.486;2022-07-23T07:55:02;13.90;;;13.30;;
18138;SDS011;9195;53.176;9.486;2022-07-23T07:57:29;13.50;;;12.90;;
18138;SDS011;9195;53.176;9.486;2022-07-23T07:59:54;13.60;;;13.00;;
18138;SDS011;9195;53.176;9.486;2022-07-23T08:02:20;13.37;;;12.77;;
18138;SDS011;9195;53.176;9.486;2022-07-23T08:04:46;13.50;;;12.90;;
18138;SDS011;9195;53.176;9.486;2022-07-23T08:07:12;13.87;;;13.27;;
18138;SDS011;9195;53.176;9.486;2022-07-23T08:09:37;13.97;;;13.37;;
18138;SDS011;9195;53.176;9.486;2022-07-23T08:12:03;13.17;;;12.57;;
18138;SDS011;9195;53.176;9.486;2022-07-23T08:14:29;13.53;;;12.93;;
18138;SDS011;9195;53.176;9.486;2022-07-23T08:16:54;13.70;;;13.10;;
18138;SDS011;9195;53.176;9.486;2022-07-23T08:19:20;13.10;;;12.50;;
18138;SDS011;9195;53.176;9.486;2022-07-23T08:21:45;13.27;;;12.67;;
18138;SDS011;9195;53.176;9.486;2022-07-23T08:24:11;13.20;;;12.60;;
18138;SDS011;9195;53.176;9.486;2022-07-23T08:26:36;13.83;;;13.23;;
18138;SDS011;9195;53.176;9.486;2022-07-23T08:29:02;14.30;;;13.70;;
18138;SDS011;9195;53.176;9.486;2022-07-23T08:31:28;14.50;;;13.90;;
18138;SDS011;9195;53.176;9.486;2022-07-23T08:33:53;14.10;;;13.50;;
18138;SDS011;9195;53.176;9.486;2022-07-23T08:36:20;14.10;;;13.50;;
18138;SDS011;9195;53.176;9.486;2022-07-23T08:38:45;14.47;;;13.87;;
18138;SDS011;9195;53.176;9.486;2022-07-23T08:41:11;14.27;;;13.67;;
18138;SDS011;9195;53.176;9.486;2022-07-23T08:43:36;14.17;;;13.57;;
18138;SDS011;9195;53.176;9.486;2022-07-23T08:46:02;14.77;;;14.07;;
18138;SDS011;9195;53.176;9.486;2022-07-23T08:48:30;14.30;;;13.70;;
18138;SDS011;9195;53.176;9.486;2022-07-23T08:50:58;13.90;;;13.30;;
18138;SDS011;9195;53.176;9.486;2022-07-23T08:53:26;14.20;;;13.60;;
18138;SDS011;9195;53.176;9.486;2022-07-23T08:55:54;14.23;;;13.63;;
18138;SDS011;9195;53.176;9.486;2022-07-23T08:58:22;14.90;;;14.20;;
18138;SDS011;9195;53.176;9.486;2022-07-23T09:00:48;14.17;;;13.57;;
18138;SDS011;9195;53.176;9.486;2022-07-23T09:03:15;14.57;;;13.97;;
18138;SDS011;9195;53.176;9.486;2022-07-23T09:05:43;14.60;;;14.00;;
18138;SDS011;9195;53.176;9.486;2022-07-23T09:16:16;14.40;;;13.80;;
18138;SDS011;9195;53.176;9.486;2022-07-23T09:18:51;14.33;;;13.73;;
18138;SDS011;9195;53.176;9.486;2022-07-23T09:26:27;14.60;;;14.00;;
18138;SDS011;9195;53.176;9.486;2022-07-23T09:28:59;15.13;;;14.43;;
18138;SDS011;9195;53.176;9.486;2022-07-23T09:31:43;15.27;;;14.57;;
18138;SDS011;9195;53.176;9.486;2022-07-23T09:34:14;14.77;;;14.07;;
18138;SDS011;9195;53.176;9.486;2022-07-23T09:39:42;15.07;;;14.37;;
18138;SDS011;9195;53.176;9.486;2022-07-23T09:42:19;15.23;;;14.53;;
18138;SDS011;9195;53.176;9.486;2022-07-23T09:44:52;14.53;;;13.93;;
18138;SDS011;9195;53.176;9.486;2022-07-23T09:47:21;14.60;;;14.00;;
18138;SDS011;9195;53.176;9.486;2022-07-23T09:50:01;14.37;;;13.77;;
18138;SDS011;9195;53.176;9.486;2022-07-23T09:52:34;14.47;;;13.87;;
18138;SDS011;9195;53.176;9.486;2022-07-23T09:55:12;14.20;;;13.60;;
18138;SDS011;9195;53.176;9.486;2022-07-23T09:57:40;14.40;;;13.80;;
18138;SDS011;9195;53.176;9.486;2022-07-23T10:00:07;14.77;;;14.10;;
18138;SDS011;9195;53.176;9.486;2022-07-23T10:02:35;14.70;;;14.07;;
18138;SDS011;9195;53.176;9.486;2022-07-23T10:05:01;14.93;;;14.23;;
18138;SDS011;9195;53.176;9.486;2022-07-23T10:07:28;14.77;;;14.10;;
18138;SDS011;9195;53.176;9.486;2022-07-23T10:09:58;15.07;;;14.37;;
18138;SDS011;9195;53.176;9.486;2022-07-23T10:12:25;14.60;;;14.00;;
18138;SDS011;9195;53.176;9.486;2022-07-23T10:15:09;14.40;;;13.80;;
18138;SDS011;9195;53.176;9.486;2022-07-23T10:17:35;14.60;;;13.97;;
18138;SDS011;9195;53.176;9.486;2022-07-23T10:20:02;14.77;;;14.10;;
18138;SDS011;9195;53.176;9.486;2022-07-23T10:22:29;14.83;;;14.13;;
18138;SDS011;9195;53.176;9.486;2022-07-23T10:27:45;14.73;;;14.03;;
18138;SDS011;9195;53.176;9.486;2022-07-23T10:33:35;14.67;;;14.07;;
18138;SDS011;9195;53.176;9.486;2022-07-23T10:36:19;14.13;;;13.53;;
18138;SDS011;9195;53.176;9.486;2022-07-23T10:41:41;14.33;;;13.73;;
18138;SDS011;9195;53.176;9.486;2022-07-23T10:44:07;14.53;;;13.93;;
18138;SDS011;9195;53.176;9.486;2022-07-23T10:46:33;14.47;;;13.87;;
18138;SDS011;9195;53.176;9.486;2022-07-23T10:49:24;14.33;;;13.73;;
18138;SDS011;9195;53.176;9.486;2022-07-23T10:54:45;15.17;;;14.47;;
18138;SDS011;9195;53.176;9.486;2022-07-23T10:57:13;14.20;;;13.60;;
18138;SDS011;9195;53.176;9.486;2022-07-23T11:02:34;14.60;;;14.00;;
18138;SDS011;9195;53.176;9.486;2022-07-23T11:05:05;14.33;;;13.73;;
18138;SDS011;9195;53.176;9.486;2022-07-23T11:07:33;14.70;;;14.07;;
18138;SDS011;9195;53.176;9.486;2022-07-23T11:10:00;14.73;;;14.03;;
18138;SDS011;9195;53.176;9.486;2022-07-23T11:15:11;14.30;;;13.70;;
18138;SDS011;9195;53.176;9.486;2022-07-23T11:20:16;14.40;;;13.80;;
18138;SDS011;9195;53.176;9.486;2022-07-23T11:25:09;14.90;;;14.20;;
18138;SDS011;9195;53.176;9.486;2022-07-23T11:27:37;14.33;;;13.73;;
18138;SDS011;9195;53.176;9.486;2022-07-23T11:30:04;14.80;;;14.10;;
18138;SDS011;9195;53.176;9.486;2022-07-23T11:32:32;14.57;;;13.97;;
18138;SDS011;9195;53.176;9.486;2022-07-23T11:35:24;14.37;;;13.77;;
18138;SDS011;9195;53.176;9.486;2022-07-23T11:37:53;14.13;;;13.53;;
18138;SDS011;9195;53.176;9.486;2022-07-23T11:40:27;14.80;;;14.10;;
18138;SDS011;9195;53.176;9.486;2022-07-23T11:43:00;14.70;;;14.07;;
18138;SDS011;9195;53.176;9.486;2022-07-23T11:45:32;15.03;;;14.33;;
18138;SDS011;9195;53.176;9.486;2022-07-23T11:48:00;14.77;;;14.13;;
18138;SDS011;9195;53.176;9.486;2022-07-23T11:50:26;14.57;;;13.98;;
18138;SDS011;9195;53.176;9.486;2022-07-23T11:52:52;15.05;;;14.35;;
18138;SDS011;9195;53.176;9.486;2022-07-23T11:55:18;15.25;;;14.55;;
18138;SDS011;9195;53.176;9.486;2022-07-23T11:57:45;15.57;;;14.88;;
18138;SDS011;9195;53.176;9.486;2022-07-23T12:00:12;15.40;;;14.70;;
18138;SDS011;9195;53.176;9.486;2022-07-23T12:02:40;15.07;;;14.38;;
18138;SDS011;9195;53.176;9.486;2022-07-23T12:05:17;15.20;;;14.50;;
18138;SDS011;9195;53.176;9.486;2022-07-23T12:07:44;15.05;;;14.35;;
18138;SDS011;9195;53.176;9.486;2022-07-23T12:10:16;15.05;;;14.35;;
18138;SDS011;9195;53.176;9.486;2022-07-23T12:12:43;15.18;;;14.48;;
18138;SDS011;9195;53.176;9.486;2022-07-23T12:15:10;15.30;;;14.60;;
18138;SDS011;9195;53.176;9.486;2022-07-23T12:17:38;15.38;;;14.68;;
18138;SDS011;9195;53.176;9.486;2022-07-23T12:20:06;15.07;;;14.38;;
18138;SDS011;9195;53.176;9.486;2022-07-23T12:22:39;14.88;;;14.18;;
18138;SDS011;9195;53.176;9.486;2022-07-23T12:25:10;15.23;;;14.52;;
18138;SDS011;9195;53.176;9.486;2022-07-23T12:27:37;15.50;;;14.80;;
18138;SDS011;9195;53.176;9.486;2022-07-23T12:32:46;15.65;;;14.95;;
18138;SDS011;9195;53.176;9.486;2022-07-23T12:35:13;15.68;;;14.98;;
18138;SDS011;9195;53.176;9.486;2022-07-23T12:37:39;14.98;;;14.27;;
18138;SDS011;9195;53.176;9.486;2022-07-23T12:42:59;15.25;;;14.55;;
18138;SDS011;9195;53.176;9.486;2022-07-23T12:45:28;14.95;;;14.25;;
18138;SDS011;9195;53.176;9.486;2022-07-23T12:53:21;15.43;;;14.73;;
18138;SDS011;9195;53.176;9.486;2022-07-23T12:55:49;15.50;;;14.80;;
18138;SDS011;9195;53.176;9.486;2022-07-23T12:58:22;15.27;;;14.57;;
18138;SDS011;9195;53.176;9.486;2022-07-23T13:03:24;15.15;;;14.45;;
18138;SDS011;9195;53.176;9.486;2022-07-23T13:05:55;15.60;;;14.90;;
18138;SDS011;9195;53.176;9.486;2022-07-23T13:08:21;14.95;;;14.25;;
18138;SDS011;9195;53.176;9.486;2022-07-23T13:10:48;15.05;;;14.35;;
18138;SDS011;9195;53.176;9.486;2022-07-23T13:13:16;15.02;;;14.32;;
18138;SDS011;9195;53.176;9.486;2022-07-23T13:15:46;15.60;;;14.90;;
18138;SDS011;9195;53.176;9.486;2022-07-23T13:18:12;15.77;;;15.07;;
18138;SDS011;9195;53.176;9.486;2022-07-23T13:20:38;15.48;;;14.77;;
18138;SDS011;9195;53.176;9.486;2022-07-23T13:23:04;14.95;;;14.25;;
18138;SDS011;9195;53.176;9.486;2022-07-23T13:25:31;15.23;;;14.52;;
18138;SDS011;9195;53.176;9.486;2022-07-23T13:27:57;15.02;;;14.32;;
18138;SDS011;9195;53.176;9.486;2022-07-23T13:30:22;15.45;;;14.75;;
18138;SDS011;9195;53.176;9.486;2022-07-23T13:32:48;15.30;;;14.60;;
18138;SDS011;9195;53.176;9.486;2022-07-23T13:35:14;15.00;;;14.30;;
18138;SDS011;9195;53.176;9.486;2022-07-23T13:37:40;15.20;;;14.50;;
18138;SDS011;9195;53.176;9.486;2022-07-23T13:40:05;15.40;;;14.70;;
18138;SDS011;9195;53.176;9.486;2022-07-23T13:42:36;15.02;;;14.32;;
18138;SDS011;9195;53.176;9.486;2022-07-23T13:45:02;14.82;;;14.15;;
18138;SDS011;9195;53.176;9.486;2022-07-23T13:47:29;14.50;;;13.90;;
18138;SDS011;9195;53.176;9.486;2022-07-23T13:49:54;14.55;;;13.95;;
18138;SDS011;9195;53.176;9.486;2022-07-23T13:52:20;14.93;;;14.23;;
18138;SDS011;9195;53.176;9.486;2022-07-23T13:54:45;14.77;;;14.10;;
18138;SDS011;9195;53.176;9.486;2022-07-23T13:57:11;14.40;;;13.80;;
18138;SDS011;9195;53.176;9.486;2022-07-23T13:59:36;14.65;;;14.05;;
18138;SDS011;9195;53.176;9.486;2022-07-23T14:02:03;14.80;;;14.10;;
18138;SDS011;9195;53.176;9.486;2022-07-23T14:04:29;14.93;;;14.23;;
18138;SDS011;9195;53.176;9.486;2022-07-23T14:06:55;15.35;;;14.65;;
18138;SDS011;9195;53.176;9.486;2022-07-23T14:09:22;15.75;;;15.05;;
18138;SDS011;9195;53.176;9.486;2022-07-23T14:11:49;15.07;;;14.38;;
18138;SDS011;9195;53.176;9.486;2022-07-23T14:14:15;15.10;;;14.40;;
18138;SDS011;9195;53.176;9.486;2022-07-23T14:16:42;15.45;;;14.75;;
18138;SDS011;9195;53.176;9.486;2022-07-23T14:19:08;14.60;;;14.00;;
18138;SDS011;9195;53.176;9.486;2022-07-23T14:21:35;14.30;;;13.70;;
18138;SDS011;9195;53.176;9.486;2022-07-23T14:24:00;15.00;;;14.30;;
18138;SDS011;9195;53.176;9.486;2022-07-23T14:26:27;15.10;;;14.40;;
18138;SDS011;9195;53.176;9.486;2022-07-23T14:28:52;15.88;;;15.18;;
18138;SDS011;9195;53.176;9.486;2022-07-23T14:31:18;15.68;;;14.98;;
18138;SDS011;9195;53.176;9.486;2022-07-23T14:33:43;15.68;;;14.98;;
18138;SDS011;9195;53.176;9.486;2022-07-23T14:36:09;16.27;;;15.57;;
18138;SDS011;9195;53.176;9.486;2022-07-23T14:38:35;15.95;;;15.25;;
18138;SDS011;9195;53.176;9.486;2022-07-23T14:41:00;15.57;;;14.88;;
18138;SDS011;9195;53.176;9.486;2022-07-23T14:43:26;16.50;;;15.80;;
18138;SDS011;9195;53.176;9.486;2022-07-23T14:45:51;17.00;;;16.20;;
18138;SDS011;9195;53.176;9.486;2022-07-23T14:48:17;17.25;;;16.45;;
18138;SDS011;9195;53.176;9.486;2022-07-23T14:50:43;17.20;;;16.40;;
18138;SDS011;9195;53.176;9.486;2022-07-23T14:53:08;17.15;;;16.35;;
18138;SDS011;9195;53.176;9.486;2022-07-23T14:55:34;16.80;;;16.00;;
18138;SDS011;9195;53.176;9.486;2022-07-23T14:58:00;16.58;;;15.77;;
18138;SDS011;9195;53.176;9.486;2022-07-23T15:00:25;16.00;;;15.30;;
18138;SDS011;9195;53.176;9.486;2022-07-23T15:02:51;15.95;;;15.25;;
18138;SDS011;9195;53.176;9.486;2022-07-23T15:05:18;15.48;;;14.77;;
18138;SDS011;9195;53.176;9.486;2022-07-23T15:07:44;16.00;;;15.30;;
18138;SDS011;9195;53.176;9.486;2022-07-23T15:10:09;16.23;;;15.52;;
18138;SDS011;9195;53.176;9.486;2022-07-23T15:12:36;15.75;;;15.05;;
18138;SDS011;9195;53.176;9.486;2022-07-23T15:15:02;15.77;;;15.07;;
18138;SDS011;9195;53.176;9.486;2022-07-23T15:17:28;15.40;;;14.70;;
18138;SDS011;9195;53.176;9.486;2022-07-23T15:19:53;15.32;;;14.63;;
18138;SDS011;9195;53.176;9.486;2022-07-23T15:22:19;16.33;;;15.63;;
18138;SDS011;9195;53.176;9.486;2022-07-23T15:24:45;16.35;;;15.65;;